Milo, Kentucky
Current Conditions -  °F | °C
As of 8:35 PM on Friday 31 Oct 2014 (Local Time) from KSJS Reporting Station
Light Rain Light Rain  
Wind Chill: 34°   Ceiling: 1000
Heat Index: 38°   Visibility: 10mi
Dew Point: 37°   Wind: 6mph
Humidity: 94%   Direction: 310°NW
Pressure: 29.91"   Gusts: NA
Location:  37.8776°N, 82.5976°W
Report Text: KSJS 010035Z AUTO 31005KT 10SM -RA OVC010 04/03 A2991 RMK AO2 T00350026
Loading
Personal Weather Stations






























Interactive Weather Map
Tropical Storm Tracking
New forecast layout! Learn more

10-Day Weather Forecast

Advertisements
Track Severe Weather on mobile